map of VXE home
VXE - Airport
Location
City:  São Pedro, São Vicente, Cape Verde
Name:São Pedro
ICAO:GVSV
IATA:VXE

Details
Type:Airport (Aerodrome, Airfield)
Use:Public/Civil
Latitude:16°50'01"N (16.833689)
Longitude:25°03'17"W (-25.054660)
Datum:WGS 1984
Elevation:66 ft (20 m)
Variation:9.77°W (WMM2015v2 magnetic declination)
0.16° annual change
Runways:1
Longest:6480 × 148 ft (1975 × 45 m), paved

Time
Time Zone:UTC-1
Local Time:

Weather
METAR:GVSV 041400Z 07022KT 9999 FEW022 BKN200 25/14 Q1017 NOSIG
TAF:GVSV 041100Z 0412/0518 06019KT 9999 SCT020
TEMPO 0412/0418 06021G31KT PROB30
TEMPO 0502/0506 06009KT

Related Locations
Nearby:
Farthest:MIS: 11986 mi / 19290 km
Misima Island, MBA, PG

Find:

   beyond  
but within

Other Information
Maps:
NOTAMs:
Links:
Sources:

  
  • flag of Cape Verde
  

Sectional Chart

Flight Planning
at skyvector.com

Satellite Image

Google Maps Satellite view

 

Copyright © 2004-2019 Karl L. Swartz. All rights reserved.
The Great Circle Mapper name and logo are trademarks of the Great Circle Mapper.
All other trademarks mentioned herein belong to their respective owners.
Please see credits for attibutions and further copyright information.

  Follow gcmap on Facebook Follow gcmap on Twitter GCmap on LinkedIn

hCard Microformat

Geo Microformat